sensor_id;sensor_type;location;lat;lon;timestamp;P1;durP1;ratioP1;P2;durP2;ratioP2
3573;SDS011;1801;51.050;6.246;2023-02-20T00:00:30;17.07;;;8.13;;
3573;SDS011;1801;51.050;6.246;2023-02-20T00:02:55;18.73;;;8.52;;
3573;SDS011;1801;51.050;6.246;2023-02-20T00:05:20;17.73;;;8.13;;
3573;SDS011;1801;51.050;6.246;2023-02-20T00:07:45;15.67;;;7.50;;
3573;SDS011;1801;51.050;6.246;2023-02-20T00:10:11;15.70;;;8.70;;
3573;SDS011;1801;51.050;6.246;2023-02-20T00:12:36;18.47;;;9.30;;
3573;SDS011;1801;51.050;6.246;2023-02-20T00:15:01;20.43;;;9.17;;
3573;SDS011;1801;51.050;6.246;2023-02-20T00:17:27;18.03;;;8.40;;
3573;SDS011;1801;51.050;6.246;2023-02-20T00:19:52;21.97;;;9.73;;
3573;SDS011;1801;51.050;6.246;2023-02-20T00:22:17;20.57;;;10.17;;
3573;SDS011;1801;51.050;6.246;2023-02-20T00:24:47;28.70;;;9.20;;
3573;SDS011;1801;51.050;6.246;2023-02-20T00:27:12;18.55;;;8.88;;
3573;SDS011;1801;51.050;6.246;2023-02-20T00:29:38;24.53;;;10.50;;
3573;SDS011;1801;51.050;6.246;2023-02-20T00:32:03;27.33;;;11.30;;
3573;SDS011;1801;51.050;6.246;2023-02-20T00:34:28;25.70;;;10.20;;
3573;SDS011;1801;51.050;6.246;2023-02-20T00:36:54;21.97;;;10.03;;
3573;SDS011;1801;51.050;6.246;2023-02-20T00:39:19;24.50;;;9.50;;
3573;SDS011;1801;51.050;6.246;2023-02-20T00:41:44;20.37;;;9.17;;
3573;SDS011;1801;51.050;6.246;2023-02-20T00:44:09;21.77;;;8.80;;
3573;SDS011;1801;51.050;6.246;2023-02-20T00:46:34;21.50;;;10.27;;
3573;SDS011;1801;51.050;6.246;2023-02-20T00:49:00;23.97;;;10.07;;
3573;SDS011;1801;51.050;6.246;2023-02-20T00:51:25;23.17;;;10.27;;
3573;SDS011;1801;51.050;6.246;2023-02-20T00:53:50;27.93;;;11.40;;
3573;SDS011;1801;51.050;6.246;2023-02-20T00:56:15;23.10;;;9.80;;
3573;SDS011;1801;51.050;6.246;2023-02-20T00:58:41;26.50;;;10.57;;
3573;SDS011;1801;51.050;6.246;2023-02-20T01:01:06;33.40;;;10.60;;
3573;SDS011;1801;51.050;6.246;2023-02-20T01:03:31;25.97;;;10.67;;
3573;SDS011;1801;51.050;6.246;2023-02-20T01:05:56;21.23;;;10.47;;
3573;SDS011;1801;51.050;6.246;2023-02-20T01:08:21;22.77;;;11.53;;
3573;SDS011;1801;51.050;6.246;2023-02-20T01:10:47;27.40;;;11.00;;
3573;SDS011;1801;51.050;6.246;2023-02-20T01:13:12;25.07;;;9.70;;
3573;SDS011;1801;51.050;6.246;2023-02-20T01:15:37;28.57;;;12.10;;
3573;SDS011;1801;51.050;6.246;2023-02-20T01:18:02;29.93;;;11.77;;
3573;SDS011;1801;51.050;6.246;2023-02-20T01:20:29;24.02;;;11.27;;
3573;SDS011;1801;51.050;6.246;2023-02-20T01:22:54;23.90;;;10.10;;
3573;SDS011;1801;51.050;6.246;2023-02-20T01:25:20;32.37;;;12.77;;
3573;SDS011;1801;51.050;6.246;2023-02-20T01:27:45;29.60;;;14.70;;
3573;SDS011;1801;51.050;6.246;2023-02-20T01:30:10;30.47;;;12.20;;
3573;SDS011;1801;51.050;6.246;2023-02-20T01:32:35;27.67;;;12.77;;
3573;SDS011;1801;51.050;6.246;2023-02-20T01:35:01;28.40;;;10.47;;
3573;SDS011;1801;51.050;6.246;2023-02-20T01:37:26;40.60;;;10.80;;
3573;SDS011;1801;51.050;6.246;2023-02-20T01:39:51;29.63;;;10.80;;
3573;SDS011;1801;51.050;6.246;2023-02-20T01:42:17;28.40;;;10.77;;
3573;SDS011;1801;51.050;6.246;2023-02-20T01:44:44;26.15;;;10.77;;
3573;SDS011;1801;51.050;6.246;2023-02-20T01:47:16;27.83;;;11.00;;
3573;SDS011;1801;51.050;6.246;2023-02-20T01:49:53;24.00;;;9.73;;
3573;SDS011;1801;51.050;6.246;2023-02-20T01:52:21;28.88;;;9.27;;
3573;SDS011;1801;51.050;6.246;2023-02-20T01:54:50;34.13;;;11.50;;
3573;SDS011;1801;51.050;6.246;2023-02-20T01:57:18;24.85;;;9.75;;
3573;SDS011;1801;51.050;6.246;2023-02-20T01:59:44;21.00;;;8.90;;
3573;SDS011;1801;51.050;6.246;2023-02-20T02:02:10;22.95;;;8.70;;
3573;SDS011;1801;51.050;6.246;2023-02-20T02:04:35;26.13;;;9.70;;
3573;SDS011;1801;51.050;6.246;2023-02-20T02:07:01;24.88;;;8.73;;
3573;SDS011;1801;51.050;6.246;2023-02-20T02:12:11;20.13;;;9.35;;
3573;SDS011;1801;51.050;6.246;2023-02-20T02:14:36;26.13;;;8.10;;
3573;SDS011;1801;51.050;6.246;2023-02-20T02:22:16;23.20;;;7.65;;
3573;SDS011;1801;51.050;6.246;2023-02-20T02:40:25;20.95;;;8.23;;
3573;SDS011;1801;51.050;6.246;2023-02-20T02:45:28;15.98;;;6.65;;
3573;SDS011;1801;51.050;6.246;2023-02-20T02:50:32;17.73;;;6.57;;
3573;SDS011;1801;51.050;6.246;2023-02-20T02:53:00;20.63;;;6.40;;
3573;SDS011;1801;51.050;6.246;2023-02-20T02:55:26;18.53;;;6.73;;
3573;SDS011;1801;51.050;6.246;2023-02-20T02:57:52;11.55;;;6.10;;
3573;SDS011;1801;51.050;6.246;2023-02-20T03:00:20;12.90;;;5.23;;
3573;SDS011;1801;51.050;6.246;2023-02-20T03:02:53;20.10;;;5.35;;
3573;SDS011;1801;51.050;6.246;2023-02-20T03:05:22;19.30;;;6.15;;
3573;SDS011;1801;51.050;6.246;2023-02-20T03:07:50;15.82;;;5.00;;
3573;SDS011;1801;51.050;6.246;2023-02-20T03:10:17;14.18;;;5.15;;
3573;SDS011;1801;51.050;6.246;2023-02-20T03:12:44;11.20;;;4.20;;
3573;SDS011;1801;51.050;6.246;2023-02-20T03:15:14;10.50;;;4.22;;
3573;SDS011;1801;51.050;6.246;2023-02-20T03:17:59;14.15;;;5.38;;
3573;SDS011;1801;51.050;6.246;2023-02-20T03:20:34;13.73;;;4.82;;
3573;SDS011;1801;51.050;6.246;2023-02-20T03:22:59;12.10;;;5.17;;
3573;SDS011;1801;51.050;6.246;2023-02-20T03:25:28;19.15;;;5.28;;
3573;SDS011;1801;51.050;6.246;2023-02-20T03:27:57;13.85;;;5.47;;
3573;SDS011;1801;51.050;6.246;2023-02-20T03:30:43;7.60;;;4.30;;
3573;SDS011;1801;51.050;6.246;2023-02-20T03:35:58;10.77;;;4.53;;
3573;SDS011;1801;51.050;6.246;2023-02-20T03:38:43;13.73;;;3.63;;
3573;SDS011;1801;51.050;6.246;2023-02-20T03:41:29;8.10;;;4.22;;
3573;SDS011;1801;51.050;6.246;2023-02-20T03:44:14;12.15;;;4.28;;
3573;SDS011;1801;51.050;6.246;2023-02-20T03:46:40;9.60;;;4.40;;
3573;SDS011;1801;51.050;6.246;2023-02-20T03:49:07;11.27;;;5.27;;
3573;SDS011;1801;51.050;6.246;2023-02-20T03:51:34;11.32;;;4.32;;
3573;SDS011;1801;51.050;6.246;2023-02-20T03:53:59;7.57;;;3.43;;
3573;SDS011;1801;51.050;6.246;2023-02-20T03:56:26;13.73;;;4.80;;
3573;SDS011;1801;51.050;6.246;2023-02-20T03:58:54;8.05;;;3.13;;
3573;SDS011;1801;51.050;6.246;2023-02-20T04:01:21;8.65;;;3.60;;
3573;SDS011;1801;51.050;6.246;2023-02-20T04:03:47;14.88;;;3.58;;
3573;SDS011;1801;51.050;6.246;2023-02-20T04:06:13;8.55;;;4.82;;
3573;SDS011;1801;51.050;6.246;2023-02-20T04:08:41;15.18;;;3.72;;
3573;SDS011;1801;51.050;6.246;2023-02-20T04:11:19;18.08;;;4.57;;
3573;SDS011;1801;51.050;6.246;2023-02-20T04:13:45;15.38;;;4.28;;
3573;SDS011;1801;51.050;6.246;2023-02-20T04:16:12;11.88;;;3.40;;
3573;SDS011;1801;51.050;6.246;2023-02-20T04:18:37;10.20;;;3.50;;
3573;SDS011;1801;51.050;6.246;2023-02-20T04:21:04;6.50;;;3.80;;
3573;SDS011;1801;51.050;6.246;2023-02-20T04:23:33;15.40;;;3.35;;
3573;SDS011;1801;51.050;6.246;2023-02-20T04:26:14;10.20;;;4.57;;
3573;SDS011;1801;51.050;6.246;2023-02-20T04:28:41;5.47;;;3.38;;
3573;SDS011;1801;51.050;6.246;2023-02-20T04:31:06;8.03;;;2.80;;
3573;SDS011;1801;51.050;6.246;2023-02-20T04:33:31;7.53;;;3.10;;
3573;SDS011;1801;51.050;6.246;2023-02-20T04:35:57;11.43;;;3.43;;
3573;SDS011;1801;51.050;6.246;2023-02-20T04:38:22;13.33;;;3.70;;
3573;SDS011;1801;51.050;6.246;2023-02-20T04:40:47;11.83;;;3.80;;
3573;SDS011;1801;51.050;6.246;2023-02-20T04:43:14;10.35;;;3.92;;
3573;SDS011;1801;51.050;6.246;2023-02-20T04:45:39;14.80;;;4.10;;
3573;SDS011;1801;51.050;6.246;2023-02-20T04:48:05;17.00;;;3.20;;
3573;SDS011;1801;51.050;6.246;2023-02-20T04:50:31;10.73;;;3.40;;
3573;SDS011;1801;51.050;6.246;2023-02-20T04:52:57;7.60;;;3.70;;
3573;SDS011;1801;51.050;6.246;2023-02-20T04:55:22;8.83;;;3.13;;
3573;SDS011;1801;51.050;6.246;2023-02-20T04:57:47;12.40;;;4.73;;
3573;SDS011;1801;51.050;6.246;2023-02-20T05:00:13;16.67;;;4.73;;
3573;SDS011;1801;51.050;6.246;2023-02-20T05:02:39;12.77;;;4.40;;
3573;SDS011;1801;51.050;6.246;2023-02-20T05:05:05;9.77;;;3.47;;
3573;SDS011;1801;51.050;6.246;2023-02-20T05:07:31;12.43;;;3.92;;
3573;SDS011;1801;51.050;6.246;2023-02-20T05:09:56;13.50;;;3.90;;
3573;SDS011;1801;51.050;6.246;2023-02-20T05:12:22;12.53;;;4.23;;
3573;SDS011;1801;51.050;6.246;2023-02-20T05:14:47;7.80;;;3.37;;
3573;SDS011;1801;51.050;6.246;2023-02-20T05:17:12;4.30;;;3.60;;
3573;SDS011;1801;51.050;6.246;2023-02-20T05:19:37;13.43;;;5.50;;
3573;SDS011;1801;51.050;6.246;2023-02-20T05:22:05;27.47;;;4.20;;
3573;SDS011;1801;51.050;6.246;2023-02-20T05:24:43;12.88;;;4.80;;
3573;SDS011;1801;51.050;6.246;2023-02-20T05:27:08;9.97;;;4.70;;
3573;SDS011;1801;51.050;6.246;2023-02-20T05:29:34;16.27;;;6.30;;
3573;SDS011;1801;51.050;6.246;2023-02-20T05:31:59;14.30;;;5.17;;
3573;SDS011;1801;51.050;6.246;2023-02-20T05:34:24;10.40;;;5.20;;
3573;SDS011;1801;51.050;6.246;2023-02-20T05:36:49;20.83;;;6.67;;
3573;SDS011;1801;51.050;6.246;2023-02-20T05:39:15;20.33;;;8.00;;
3573;SDS011;1801;51.050;6.246;2023-02-20T05:41:40;13.50;;;5.70;;
3573;SDS011;1801;51.050;6.246;2023-02-20T05:44:05;10.20;;;5.40;;
3573;SDS011;1801;51.050;6.246;2023-02-20T05:46:30;14.73;;;4.67;;
3573;SDS011;1801;51.050;6.246;2023-02-20T05:48:55;13.00;;;4.50;;
3573;SDS011;1801;51.050;6.246;2023-02-20T05:53:46;12.37;;;5.10;;
3573;SDS011;1801;51.050;6.246;2023-02-20T05:56:11;19.63;;;5.07;;
3573;SDS011;1801;51.050;6.246;2023-02-20T05:58:36;17.23;;;7.30;;
3573;SDS011;1801;51.050;6.246;2023-02-20T06:01:01;21.00;;;5.50;;
3573;SDS011;1801;51.050;6.246;2023-02-20T06:03:27;8.00;;;4.83;;
3573;SDS011;1801;51.050;6.246;2023-02-20T06:05:52;17.20;;;6.30;;
3573;SDS011;1801;51.050;6.246;2023-02-20T06:08:20;12.88;;;6.35;;
3573;SDS011;1801;51.050;6.246;2023-02-20T06:10:45;15.53;;;6.93;;
3573;SDS011;1801;51.050;6.246;2023-02-20T06:13:10;17.87;;;7.33;;
3573;SDS011;1801;51.050;6.246;2023-02-20T06:15:35;27.73;;;8.50;;
3573;SDS011;1801;51.050;6.246;2023-02-20T06:18:01;22.57;;;8.10;;
3573;SDS011;1801;51.050;6.246;2023-02-20T06:20:26;17.03;;;7.40;;
3573;SDS011;1801;51.050;6.246;2023-02-20T06:22:51;17.63;;;7.87;;
3573;SDS011;1801;51.050;6.246;2023-02-20T06:25:16;15.07;;;5.70;;
3573;SDS011;1801;51.050;6.246;2023-02-20T06:27:41;20.40;;;8.87;;
3573;SDS011;1801;51.050;6.246;2023-02-20T06:30:07;29.47;;;9.57;;
3573;SDS011;1801;51.050;6.246;2023-02-20T06:32:32;20.80;;;7.70;;
3573;SDS011;1801;51.050;6.246;2023-02-20T06:34:57;24.70;;;10.00;;
3573;SDS011;1801;51.050;6.246;2023-02-20T06:37:23;20.83;;;8.63;;
3573;SDS011;1801;51.050;6.246;2023-02-20T06:39:48;15.03;;;7.90;;
3573;SDS011;1801;51.050;6.246;2023-02-20T06:42:13;22.47;;;9.03;;
3573;SDS011;1801;51.050;6.246;2023-02-20T06:44:39;22.03;;;9.43;;
3573;SDS011;1801;51.050;6.246;2023-02-20T06:47:04;14.87;;;8.00;;
3573;SDS011;1801;51.050;6.246;2023-02-20T06:49:33;28.65;;;11.88;;
3573;SDS011;1801;51.050;6.246;2023-02-20T06:51:58;30.57;;;12.20;;
3573;SDS011;1801;51.050;6.246;2023-02-20T06:54:23;31.63;;;10.80;;
3573;SDS011;1801;51.050;6.246;2023-02-20T06:56:48;8.20;;;5.67;;
3573;SDS011;1801;51.050;6.246;2023-02-20T06:59:15;24.17;;;8.77;;
3573;SDS011;1801;51.050;6.246;2023-02-20T07:01:41;22.97;;;10.80;;
3573;SDS011;1801;51.050;6.246;2023-02-20T07:04:08;19.90;;;9.85;;
3573;SDS011;1801;51.050;6.246;2023-02-20T07:06:34;32.28;;;12.30;;
3573;SDS011;1801;51.050;6.246;2023-02-20T07:09:01;25.55;;;10.07;;
3573;SDS011;1801;51.050;6.246;2023-02-20T07:11:26;24.50;;;10.77;;
3573;SDS011;1801;51.050;6.246;2023-02-20T07:13:52;23.33;;;8.23;;
3573;SDS011;1801;51.050;6.246;2023-02-20T07:16:17;29.87;;;11.70;;
3573;SDS011;1801;51.050;6.246;2023-02-20T07:18:42;19.03;;;9.00;;
3573;SDS011;1801;51.050;6.246;2023-02-20T07:21:07;20.33;;;9.83;;
3573;SDS011;1801;51.050;6.246;2023-02-20T07:23:33;18.33;;;9.47;;
3573;SDS011;1801;51.050;6.246;2023-02-20T07:25:58;24.60;;;10.53;;
3573;SDS011;1801;51.050;6.246;2023-02-20T07:28:23;25.50;;;9.87;;
3573;SDS011;1801;51.050;6.246;2023-02-20T07:30:48;24.43;;;11.07;;
3573;SDS011;1801;51.050;6.246;2023-02-20T07:33:14;29.83;;;11.50;;
3573;SDS011;1801;51.050;6.246;2023-02-20T07:35:39;24.00;;;10.23;;
3573;SDS011;1801;51.050;6.246;2023-02-20T07:38:05;17.30;;;7.07;;
3573;SDS011;1801;51.050;6.246;2023-02-20T07:40:30;21.53;;;9.57;;
3573;SDS011;1801;51.050;6.246;2023-02-20T07:42:55;22.83;;;10.50;;
3573;SDS011;1801;51.050;6.246;2023-02-20T07:45:21;19.93;;;9.37;;
3573;SDS011;1801;51.050;6.246;2023-02-20T07:47:46;25.57;;;10.50;;
3573;SDS011;1801;51.050;6.246;2023-02-20T07:50:12;22.87;;;9.43;;
3573;SDS011;1801;51.050;6.246;2023-02-20T07:52:38;28.33;;;9.90;;
3573;SDS011;1801;51.050;6.246;2023-02-20T07:55:03;30.53;;;11.10;;
3573;SDS011;1801;51.050;6.246;2023-02-20T07:57:29;34.57;;;11.23;;
3573;SDS011;1801;51.050;6.246;2023-02-20T07:59:55;22.85;;;10.93;;
3573;SDS011;1801;51.050;6.246;2023-02-20T08:02:21;25.23;;;11.33;;
3573;SDS011;1801;51.050;6.246;2023-02-20T08:04:46;20.23;;;10.13;;
3573;SDS011;1801;51.050;6.246;2023-02-20T08:07:11;23.73;;;10.10;;
3573;SDS011;1801;51.050;6.246;2023-02-20T08:09:36;27.97;;;9.10;;
3573;SDS011;1801;51.050;6.246;2023-02-20T08:12:01;43.40;;;11.30;;
3573;SDS011;1801;51.050;6.246;2023-02-20T08:14:27;17.23;;;8.07;;
3573;SDS011;1801;51.050;6.246;2023-02-20T08:16:52;17.83;;;8.87;;
3573;SDS011;1801;51.050;6.246;2023-02-20T08:19:17;22.90;;;10.53;;
3573;SDS011;1801;51.050;6.246;2023-02-20T08:21:42;30.10;;;8.43;;
3573;SDS011;1801;51.050;6.246;2023-02-20T08:24:08;25.53;;;9.47;;
3573;SDS011;1801;51.050;6.246;2023-02-20T08:26:33;24.37;;;11.20;;
3573;SDS011;1801;51.050;6.246;2023-02-20T08:29:01;21.40;;;8.50;;
3573;SDS011;1801;51.050;6.246;2023-02-20T08:31:26;17.63;;;7.77;;
3573;SDS011;1801;51.050;6.246;2023-02-20T08:33:52;22.47;;;10.10;;
3573;SDS011;1801;51.050;6.246;2023-02-20T08:36:17;17.37;;;7.57;;
3573;SDS011;1801;51.050;6.246;2023-02-20T08:38:43;27.23;;;9.83;;
3573;SDS011;1801;51.050;6.246;2023-02-20T08:41:09;21.60;;;9.53;;
3573;SDS011;1801;51.050;6.246;2023-02-20T08:43:35;17.52;;;8.13;;
3573;SDS011;1801;51.050;6.246;2023-02-20T08:46:00;23.20;;;7.67;;
3573;SDS011;1801;51.050;6.246;2023-02-20T08:48:26;23.40;;;9.17;;
3573;SDS011;1801;51.050;6.246;2023-02-20T08:50:51;20.77;;;8.47;;
3573;SDS011;1801;51.050;6.246;2023-02-20T08:53:17;15.50;;;8.20;;
3573;SDS011;1801;51.050;6.246;2023-02-20T08:55:42;26.23;;;11.50;;
3573;SDS011;1801;51.050;6.246;2023-02-20T08:58:07;19.40;;;9.80;;
3573;SDS011;1801;51.050;6.246;2023-02-20T09:00:33;13.87;;;5.60;;
3573;SDS011;1801;51.050;6.246;2023-02-20T09:02:58;17.37;;;6.87;;
3573;SDS011;1801;51.050;6.246;2023-02-20T09:05:24;21.17;;;9.97;;
3573;SDS011;1801;51.050;6.246;2023-02-20T09:07:49;22.70;;;9.20;;
3573;SDS011;1801;51.050;6.246;2023-02-20T09:10:16;18.97;;;7.87;;
3573;SDS011;1801;51.050;6.246;2023-02-20T09:12:42;18.63;;;8.13;;
3573;SDS011;1801;51.050;6.246;2023-02-20T09:15:07;22.20;;;9.00;;
3573;SDS011;1801;51.050;6.246;2023-02-20T09:17:33;25.65;;;6.80;;
3573;SDS011;1801;51.050;6.246;2023-02-20T09:19:58;26.87;;;9.83;;
3573;SDS011;1801;51.050;6.246;2023-02-20T09:22:24;22.70;;;10.57;;
3573;SDS011;1801;51.050;6.246;2023-02-20T09:24:50;30.02;;;7.95;;
3573;SDS011;1801;51.050;6.246;2023-02-20T09:27:15;17.53;;;7.90;;
3573;SDS011;1801;51.050;6.246;2023-02-20T09:29:40;33.07;;;10.50;;
3573;SDS011;1801;51.050;6.246;2023-02-20T09:32:07;15.43;;;6.68;;
3573;SDS011;1801;51.050;6.246;2023-02-20T09:34:32;11.90;;;5.73;;
3573;SDS011;1801;51.050;6.246;2023-02-20T09:36:57;22.07;;;8.07;;
3573;SDS011;1801;51.050;6.246;2023-02-20T09:39:22;24.60;;;9.13;;
3573;SDS011;1801;51.050;6.246;2023-02-20T09:42:01;17.80;;;8.50;;
3573;SDS011;1801;51.050;6.246;2023-02-20T09:44:41;25.75;;;8.57;;
3573;SDS011;1801;51.050;6.246;2023-02-20T09:47:18;18.05;;;7.88;;
3573;SDS011;1801;51.050;6.246;2023-02-20T09:49:48;23.08;;;9.73;;
3573;SDS011;1801;51.050;6.246;2023-02-20T09:52:13;17.07;;;9.57;;
3573;SDS011;1801;51.050;6.246;2023-02-20T09:54:44;23.10;;;10.95;;
3573;SDS011;1801;51.050;6.246;2023-02-20T09:57:13;21.13;;;10.13;;
3573;SDS011;1801;51.050;6.246;2023-02-20T10:04:39;36.70;;;10.98;;
3573;SDS011;1801;51.050;6.246;2023-02-20T10:07:11;18.05;;;8.30;;
3573;SDS011;1801;51.050;6.246;2023-02-20T10:09:37;23.00;;;8.57;;
3573;SDS011;1801;51.050;6.246;2023-02-20T10:12:11;17.80;;;7.77;;
3573;SDS011;1801;51.050;6.246;2023-02-20T10:19:53;18.67;;;8.50;;
3573;SDS011;1801;51.050;6.246;2023-02-20T10:22:21;11.45;;;6.55;;
3573;SDS011;1801;51.050;6.246;2023-02-20T10:24:52;15.55;;;7.30;;
3573;SDS011;1801;51.050;6.246;2023-02-20T10:29:58;15.48;;;8.85;;
3573;SDS011;1801;51.050;6.246;2023-02-20T10:32:31;17.23;;;8.40;;
3573;SDS011;1801;51.050;6.246;2023-02-20T10:35:04;27.67;;;7.78;;
3573;SDS011;1801;51.050;6.246;2023-02-20T10:37:33;34.90;;;10.93;;
3573;SDS011;1801;51.050;6.246;2023-02-20T10:40:01;25.40;;;7.53;;
3573;SDS011;1801;51.050;6.246;2023-02-20T10:45:02;21.35;;;10.02;;
3573;SDS011;1801;51.050;6.246;2023-02-20T10:47:40;40.35;;;10.20;;
3573;SDS011;1801;51.050;6.246;2023-02-20T10:50:20;17.08;;;8.88;;
3573;SDS011;1801;51.050;6.246;2023-02-20T10:55:26;25.37;;;10.13;;
3573;SDS011;1801;51.050;6.246;2023-02-20T10:58:02;15.05;;;8.65;;
3573;SDS011;1801;51.050;6.246;2023-02-20T11:00:31;14.65;;;6.38;;
3573;SDS011;1801;51.050;6.246;2023-02-20T11:03:03;15.45;;;4.90;;
3573;SDS011;1801;51.050;6.246;2023-02-20T11:05:30;24.30;;;9.98;;
3573;SDS011;1801;51.050;6.246;2023-02-20T11:07:56;16.40;;;6.75;;
3573;SDS011;1801;51.050;6.246;2023-02-20T11:10:21;19.43;;;9.23;;
3573;SDS011;1801;51.050;6.246;2023-02-20T11:12:48;18.80;;;7.17;;
3573;SDS011;1801;51.050;6.246;2023-02-20T11:15:15;29.42;;;10.57;;
3573;SDS011;1801;51.050;6.246;2023-02-20T11:17:41;30.25;;;11.70;;
3573;SDS011;1801;51.050;6.246;2023-02-20T11:22:52;23.90;;;10.15;;
3573;SDS011;1801;51.050;6.246;2023-02-20T11:27:43;25.30;;;10.87;;
3573;SDS011;1801;51.050;6.246;2023-02-20T11:30:30;25.50;;;10.85;;
3573;SDS011;1801;51.050;6.246;2023-02-20T11:33:32;20.15;;;9.18;;
3573;SDS011;1801;51.050;6.246;2023-02-20T11:35:55;45.30;;;13.85;;
3573;SDS011;1801;51.050;6.246;2023-02-20T11:45:45;16.75;;;8.75;;
3573;SDS011;1801;51.050;6.246;2023-02-20T11:48:14;12.77;;;6.60;;
3573;SDS011;1801;51.050;6.246;2023-02-20T11:50:44;20.27;;;8.43;;
3573;SDS011;1801;51.050;6.246;2023-02-20T11:56:06;20.02;;;9.48;;
3573;SDS011;1801;51.050;6.246;2023-02-20T11:58:31;15.93;;;6.95;;
3573;SDS011;1801;51.050;6.246;2023-02-20T12:00:57;23.70;;;10.43;;
3573;SDS011;1801;51.050;6.246;2023-02-20T12:03:23;17.93;;;8.30;;
3573;SDS011;1801;51.050;6.246;2023-02-20T12:05:49;22.02;;;11.45;;
3573;SDS011;1801;51.050;6.246;2023-02-20T12:10:46;27.00;;;9.90;;
3573;SDS011;1801;51.050;6.246;2023-02-20T12:13:13;22.65;;;9.05;;
3573;SDS011;1801;51.050;6.246;2023-02-20T12:15:40;24.98;;;8.05;;
3573;SDS011;1801;51.050;6.246;2023-02-20T12:26:17;24.50;;;10.10;;
3573;SDS011;1801;51.050;6.246;2023-02-20T12:31:34;17.02;;;8.65;;
3573;SDS011;1801;51.050;6.246;2023-02-20T12:36:42;29.70;;;9.52;;
3573;SDS011;1801;51.050;6.246;2023-02-20T12:42:04;20.17;;;10.55;;
3573;SDS011;1801;51.050;6.246;2023-02-20T12:49:58;22.40;;;10.18;;
3573;SDS011;1801;51.050;6.246;2023-02-20T12:57:41;31.73;;;9.88;;
3573;SDS011;1801;51.050;6.246;2023-02-20T13:00:21;28.15;;;10.32;;
3573;SDS011;1801;51.050;6.246;2023-02-20T13:02:47;22.45;;;10.07;;
3573;SDS011;1801;51.050;6.246;2023-02-20T13:05:15;30.40;;;10.77;;
3573;SDS011;1801;51.050;6.246;2023-02-20T13:07:55;29.75;;;12.00;;
3573;SDS011;1801;51.050;6.246;2023-02-20T13:10:22;33.20;;;12.73;;
3573;SDS011;1801;51.050;6.246;2023-02-20T13:12:49;34.60;;;12.77;;
3573;SDS011;1801;51.050;6.246;2023-02-20T13:23:05;27.77;;;11.95;;
3573;SDS011;1801;51.050;6.246;2023-02-20T13:28:04;21.53;;;9.43;;
3573;SDS011;1801;51.050;6.246;2023-02-20T13:30:31;24.75;;;11.38;;
3573;SDS011;1801;51.050;6.246;2023-02-20T13:33:10;14.93;;;7.03;;
3573;SDS011;1801;51.050;6.246;2023-02-20T13:38:13;25.00;;;10.17;;
3573;SDS011;1801;51.050;6.246;2023-02-20T13:41:01;24.05;;;10.85;;
3573;SDS011;1801;51.050;6.246;2023-02-20T13:43:30;29.80;;;13.05;;
3573;SDS011;1801;51.050;6.246;2023-02-20T13:53:36;16.38;;;8.60;;
3573;SDS011;1801;51.050;6.246;2023-02-20T13:56:01;30.30;;;13.40;;
3573;SDS011;1801;51.050;6.246;2023-02-20T13:58:26;21.90;;;9.00;;
3573;SDS011;1801;51.050;6.246;2023-02-20T14:00:52;38.43;;;12.40;;
3573;SDS011;1801;51.050;6.246;2023-02-20T14:03:26;37.88;;;10.30;;
3573;SDS011;1801;51.050;6.246;2023-02-20T14:06:02;27.73;;;12.73;;
3573;SDS011;1801;51.050;6.246;2023-02-20T14:08:27;27.48;;;11.13;;
3573;SDS011;1801;51.050;6.246;2023-02-20T14:10:52;21.30;;;10.10;;
3573;SDS011;1801;51.050;6.246;2023-02-20T14:13:19;33.57;;;10.37;;
3573;SDS011;1801;51.050;6.246;2023-02-20T14:15:54;12.20;;;6.47;;
3573;SDS011;1801;51.050;6.246;2023-02-20T14:18:20;28.73;;;9.05;;
3573;SDS011;1801;51.050;6.246;2023-02-20T14:20:48;20.23;;;8.95;;
3573;SDS011;1801;51.050;6.246;2023-02-20T14:23:20;13.35;;;6.07;;
3573;SDS011;1801;51.050;6.246;2023-02-20T14:26:02;16.90;;;8.02;;
3573;SDS011;1801;51.050;6.246;2023-02-20T14:28:29;20.65;;;6.30;;
3573;SDS011;1801;51.050;6.246;2023-02-20T14:33:28;21.50;;;8.32;;
3573;SDS011;1801;51.050;6.246;2023-02-20T14:38:39;12.02;;;7.32;;
3573;SDS011;1801;51.050;6.246;2023-02-20T14:41:09;21.37;;;8.27;;
3573;SDS011;1801;51.050;6.246;2023-02-20T14:43:35;16.57;;;7.57;;
3573;SDS011;1801;51.050;6.246;2023-02-20T14:46:05;9.13;;;5.37;;
3573;SDS011;1801;51.050;6.246;2023-02-20T14:48:35;9.77;;;6.88;;
3573;SDS011;1801;51.050;6.246;2023-02-20T14:51:10;18.02;;;8.40;;
3573;SDS011;1801;51.050;6.246;2023-02-20T14:53:36;19.00;;;8.30;;
3573;SDS011;1801;51.050;6.246;2023-02-20T14:58:36;19.23;;;8.45;;
3573;SDS011;1801;51.050;6.246;2023-02-20T15:01:11;15.55;;;6.05;;
3573;SDS011;1801;51.050;6.246;2023-02-20T15:03:37;20.30;;;7.82;;
3573;SDS011;1801;51.050;6.246;2023-02-20T15:06:02;11.13;;;6.53;;
3573;SDS011;1801;51.050;6.246;2023-02-20T15:08:30;18.25;;;8.10;;
3573;SDS011;1801;51.050;6.246;2023-02-20T15:10:56;17.65;;;7.03;;
3573;SDS011;1801;51.050;6.246;2023-02-20T15:13:23;15.17;;;7.67;;
3573;SDS011;1801;51.050;6.246;2023-02-20T15:15:51;19.10;;;9.90;;
3573;SDS011;1801;51.050;6.246;2023-02-20T15:18:36;14.50;;;7.28;;
3573;SDS011;1801;51.050;6.246;2023-02-20T15:21:02;13.73;;;7.22;;
3573;SDS011;1801;51.050;6.246;2023-02-20T15:25:53;19.27;;;6.97;;
3573;SDS011;1801;51.050;6.246;2023-02-20T15:30:59;18.63;;;8.60;;
3573;SDS011;1801;51.050;6.246;2023-02-20T15:33:25;19.47;;;9.10;;
3573;SDS011;1801;51.050;6.246;2023-02-20T15:35:50;17.83;;;7.23;;
3573;SDS011;1801;51.050;6.246;2023-02-20T15:38:16;15.97;;;6.40;;
3573;SDS011;1801;51.050;6.246;2023-02-20T15:40:41;23.83;;;9.53;;
3573;SDS011;1801;51.050;6.246;2023-02-20T15:43:10;24.50;;;7.97;;
3573;SDS011;1801;51.050;6.246;2023-02-20T15:45:36;19.08;;;8.00;;
3573;SDS011;1801;51.050;6.246;2023-02-20T15:48:03;13.48;;;7.32;;
3573;SDS011;1801;51.050;6.246;2023-02-20T15:50:28;17.47;;;9.57;;
3573;SDS011;1801;51.050;6.246;2023-02-20T15:52:53;19.73;;;7.50;;
3573;SDS011;1801;51.050;6.246;2023-02-20T15:55:20;17.40;;;6.67;;
3573;SDS011;1801;51.050;6.246;2023-02-20T15:57:46;16.30;;;7.20;;
3573;SDS011;1801;51.050;6.246;2023-02-20T16:02:44;15.93;;;6.97;;
3573;SDS011;1801;51.050;6.246;2023-02-20T16:05:09;21.43;;;8.73;;
3573;SDS011;1801;51.050;6.246;2023-02-20T16:07:34;17.73;;;7.90;;
3573;SDS011;1801;51.050;6.246;2023-02-20T16:09:59;20.57;;;8.57;;
3573;SDS011;1801;51.050;6.246;2023-02-20T16:12:25;20.37;;;9.07;;
3573;SDS011;1801;51.050;6.246;2023-02-20T16:14:52;11.40;;;5.50;;
3573;SDS011;1801;51.050;6.246;2023-02-20T16:17:25;15.83;;;8.00;;
3573;SDS011;1801;51.050;6.246;2023-02-20T16:19:51;13.82;;;7.63;;
3573;SDS011;1801;51.050;6.246;2023-02-20T16:22:16;24.37;;;8.53;;
3573;SDS011;1801;51.050;6.246;2023-02-20T16:24:42;18.27;;;7.90;;
3573;SDS011;1801;51.050;6.246;2023-02-20T16:27:18;18.80;;;7.03;;
3573;SDS011;1801;51.050;6.246;2023-02-20T16:29:44;19.77;;;8.50;;
3573;SDS011;1801;51.050;6.246;2023-02-20T16:32:15;20.97;;;8.70;;
3573;SDS011;1801;51.050;6.246;2023-02-20T16:34:40;27.33;;;10.93;;
3573;SDS011;1801;51.050;6.246;2023-02-20T16:37:10;15.07;;;8.13;;
3573;SDS011;1801;51.050;6.246;2023-02-20T16:39:35;21.10;;;9.73;;
3573;SDS011;1801;51.050;6.246;2023-02-20T16:42:01;21.90;;;8.60;;
3573;SDS011;1801;51.050;6.246;2023-02-20T16:44:36;14.95;;;7.35;;
3573;SDS011;1801;51.050;6.246;2023-02-20T16:47:04;20.48;;;8.13;;
3573;SDS011;1801;51.050;6.246;2023-02-20T16:49:29;25.33;;;8.47;;
3573;SDS011;1801;51.050;6.246;2023-02-20T16:52:01;22.00;;;9.60;;
3573;SDS011;1801;51.050;6.246;2023-02-20T16:54:26;15.03;;;7.17;;
3573;SDS011;1801;51.050;6.246;2023-02-20T16:56:52;16.37;;;7.40;;
3573;SDS011;1801;51.050;6.246;2023-02-20T16:59:17;17.40;;;8.67;;
3573;SDS011;1801;51.050;6.246;2023-02-20T17:01:43;16.93;;;7.90;;
3573;SDS011;1801;51.050;6.246;2023-02-20T17:04:08;19.47;;;7.60;;
3573;SDS011;1801;51.050;6.246;2023-02-20T17:06:37;22.25;;;8.45;;
3573;SDS011;1801;51.050;6.246;2023-02-20T17:09:02;13.03;;;6.07;;
3573;SDS011;1801;51.050;6.246;2023-02-20T17:11:27;15.00;;;8.10;;